sensor_id;sensor_type;location;lat;lon;timestamp;P1;durP1;ratioP1;P2;durP2;ratioP2
7539;SDS011;3811;49.006;12.076;2023-08-30T00:01:10;1.47;;;1.37;;
7539;SDS011;3811;49.006;12.076;2023-08-30T00:03:37;1.33;;;1.30;;
7539;SDS011;3811;49.006;12.076;2023-08-30T00:06:05;1.07;;;1.07;;
7539;SDS011;3811;49.006;12.076;2023-08-30T00:08:33;1.83;;;1.10;;
7539;SDS011;3811;49.006;12.076;2023-08-30T00:11:00;1.83;;;1.60;;
7539;SDS011;3811;49.006;12.076;2023-08-30T00:13:29;1.40;;;1.40;;
7539;SDS011;3811;49.006;12.076;2023-08-30T00:15:56;1.53;;;1.30;;
7539;SDS011;3811;49.006;12.076;2023-08-30T00:18:24;1.20;;;1.20;;
7539;SDS011;3811;49.006;12.076;2023-08-30T00:20:51;1.63;;;1.27;;
7539;SDS011;3811;49.006;12.076;2023-08-30T00:23:18;1.63;;;1.53;;
7539;SDS011;3811;49.006;12.076;2023-08-30T00:25:45;1.87;;;1.70;;
7539;SDS011;3811;49.006;12.076;2023-08-30T00:28:12;1.77;;;1.60;;
7539;SDS011;3811;49.006;12.076;2023-08-30T00:30:39;1.73;;;1.63;;
7539;SDS011;3811;49.006;12.076;2023-08-30T00:33:06;1.60;;;1.50;;
7539;SDS011;3811;49.006;12.076;2023-08-30T00:35:35;1.80;;;1.70;;
7539;SDS011;3811;49.006;12.076;2023-08-30T00:38:02;1.10;;;1.10;;
7539;SDS011;3811;49.006;12.076;2023-08-30T00:40:37;2.70;;;2.00;;
7539;SDS011;3811;49.006;12.076;2023-08-30T00:43:05;1.20;;;1.20;;
7539;SDS011;3811;49.006;12.076;2023-08-30T00:45:32;1.20;;;1.07;;
7539;SDS011;3811;49.006;12.076;2023-08-30T00:48:00;2.13;;;1.60;;
7539;SDS011;3811;49.006;12.076;2023-08-30T00:50:26;1.60;;;1.50;;
7539;SDS011;3811;49.006;12.076;2023-08-30T00:52:56;1.43;;;1.20;;
7539;SDS011;3811;49.006;12.076;2023-08-30T00:55:23;1.57;;;1.47;;
7539;SDS011;3811;49.006;12.076;2023-08-30T00:57:50;1.40;;;1.30;;
7539;SDS011;3811;49.006;12.076;2023-08-30T01:00:17;1.70;;;1.60;;
7539;SDS011;3811;49.006;12.076;2023-08-30T01:02:45;1.70;;;1.60;;
7539;SDS011;3811;49.006;12.076;2023-08-30T01:05:12;3.23;;;1.90;;
7539;SDS011;3811;49.006;12.076;2023-08-30T01:07:41;1.43;;;1.43;;
7539;SDS011;3811;49.006;12.076;2023-08-30T01:10:10;1.73;;;1.30;;
7539;SDS011;3811;49.006;12.076;2023-08-30T01:12:38;1.83;;;1.73;;
7539;SDS011;3811;49.006;12.076;2023-08-30T01:15:10;1.60;;;1.50;;
7539;SDS011;3811;49.006;12.076;2023-08-30T01:17:42;1.33;;;1.30;;
7539;SDS011;3811;49.006;12.076;2023-08-30T01:20:10;1.43;;;1.33;;
7539;SDS011;3811;49.006;12.076;2023-08-30T01:22:40;1.37;;;1.37;;
7539;SDS011;3811;49.006;12.076;2023-08-30T01:25:15;1.00;;;1.00;;
7539;SDS011;3811;49.006;12.076;2023-08-30T01:27:53;1.27;;;1.27;;
7539;SDS011;3811;49.006;12.076;2023-08-30T01:30:21;1.73;;;1.43;;
7539;SDS011;3811;49.006;12.076;2023-08-30T01:32:49;1.17;;;1.17;;
7539;SDS011;3811;49.006;12.076;2023-08-30T01:35:18;1.07;;;1.07;;
7539;SDS011;3811;49.006;12.076;2023-08-30T01:37:47;1.53;;;1.10;;
7539;SDS011;3811;49.006;12.076;2023-08-30T01:40:14;1.27;;;1.27;;
7539;SDS011;3811;49.006;12.076;2023-08-30T01:42:43;1.57;;;1.47;;
7539;SDS011;3811;49.006;12.076;2023-08-30T01:45:14;1.10;;;1.10;;
7539;SDS011;3811;49.006;12.076;2023-08-30T01:47:42;1.30;;;1.30;;
7539;SDS011;3811;49.006;12.076;2023-08-30T01:50:10;2.60;;;1.67;;
7539;SDS011;3811;49.006;12.076;2023-08-30T01:52:38;1.40;;;1.40;;
7539;SDS011;3811;49.006;12.076;2023-08-30T01:55:06;1.60;;;1.50;;
7539;SDS011;3811;49.006;12.076;2023-08-30T01:57:36;1.50;;;1.40;;
7539;SDS011;3811;49.006;12.076;2023-08-30T02:00:03;1.30;;;1.20;;
7539;SDS011;3811;49.006;12.076;2023-08-30T02:02:42;1.30;;;1.30;;
7539;SDS011;3811;49.006;12.076;2023-08-30T02:05:09;0.97;;;0.97;;
7539;SDS011;3811;49.006;12.076;2023-08-30T02:07:39;1.83;;;1.67;;
7539;SDS011;3811;49.006;12.076;2023-08-30T02:10:15;1.87;;;1.77;;
7539;SDS011;3811;49.006;12.076;2023-08-30T02:12:49;1.40;;;1.30;;
7539;SDS011;3811;49.006;12.076;2023-08-30T02:15:18;1.03;;;1.03;;
7539;SDS011;3811;49.006;12.076;2023-08-30T02:17:47;1.40;;;1.40;;
7539;SDS011;3811;49.006;12.076;2023-08-30T02:20:15;1.67;;;1.30;;
7539;SDS011;3811;49.006;12.076;2023-08-30T02:22:42;1.63;;;1.30;;
7539;SDS011;3811;49.006;12.076;2023-08-30T02:25:10;1.63;;;1.53;;
7539;SDS011;3811;49.006;12.076;2023-08-30T02:27:36;1.47;;;1.37;;
7539;SDS011;3811;49.006;12.076;2023-08-30T02:30:04;1.40;;;1.30;;
7539;SDS011;3811;49.006;12.076;2023-08-30T02:32:32;1.53;;;1.43;;
7539;SDS011;3811;49.006;12.076;2023-08-30T02:35:02;1.23;;;1.20;;
7539;SDS011;3811;49.006;12.076;2023-08-30T02:37:29;2.20;;;1.87;;
7539;SDS011;3811;49.006;12.076;2023-08-30T02:39:56;1.80;;;1.70;;
7539;SDS011;3811;49.006;12.076;2023-08-30T02:42:23;1.63;;;1.53;;
7539;SDS011;3811;49.006;12.076;2023-08-30T02:44:53;1.60;;;1.50;;
7539;SDS011;3811;49.006;12.076;2023-08-30T02:47:19;1.67;;;1.57;;
7539;SDS011;3811;49.006;12.076;2023-08-30T02:49:46;1.90;;;1.57;;
7539;SDS011;3811;49.006;12.076;2023-08-30T02:52:14;1.60;;;1.50;;
7539;SDS011;3811;49.006;12.076;2023-08-30T02:54:41;1.30;;;1.20;;
7539;SDS011;3811;49.006;12.076;2023-08-30T02:57:08;1.80;;;1.63;;
7539;SDS011;3811;49.006;12.076;2023-08-30T02:59:36;1.37;;;1.27;;
7539;SDS011;3811;49.006;12.076;2023-08-30T03:02:05;1.70;;;1.60;;
7539;SDS011;3811;49.006;12.076;2023-08-30T03:04:32;2.27;;;2.10;;
7539;SDS011;3811;49.006;12.076;2023-08-30T03:06:59;1.77;;;1.67;;
7539;SDS011;3811;49.006;12.076;2023-08-30T03:09:29;1.70;;;1.60;;
7539;SDS011;3811;49.006;12.076;2023-08-30T03:11:56;2.00;;;1.70;;
7539;SDS011;3811;49.006;12.076;2023-08-30T03:14:23;1.43;;;1.33;;
7539;SDS011;3811;49.006;12.076;2023-08-30T03:16:50;1.60;;;1.50;;
7539;SDS011;3811;49.006;12.076;2023-08-30T03:19:17;3.03;;;1.43;;
7539;SDS011;3811;49.006;12.076;2023-08-30T03:21:44;1.30;;;1.30;;
7539;SDS011;3811;49.006;12.076;2023-08-30T03:24:12;1.63;;;1.57;;
7539;SDS011;3811;49.006;12.076;2023-08-30T03:26:43;2.37;;;2.00;;
7539;SDS011;3811;49.006;12.076;2023-08-30T03:29:11;1.97;;;1.87;;
7539;SDS011;3811;49.006;12.076;2023-08-30T03:31:38;2.30;;;2.10;;
7539;SDS011;3811;49.006;12.076;2023-08-30T03:34:05;2.40;;;2.20;;
7539;SDS011;3811;49.006;12.076;2023-08-30T03:36:32;2.07;;;1.87;;
7539;SDS011;3811;49.006;12.076;2023-08-30T03:39:00;2.23;;;2.03;;
7539;SDS011;3811;49.006;12.076;2023-08-30T03:41:28;2.53;;;2.00;;
7539;SDS011;3811;49.006;12.076;2023-08-30T03:43:57;2.20;;;2.10;;
7539;SDS011;3811;49.006;12.076;2023-08-30T03:46:25;1.93;;;1.80;;
7539;SDS011;3811;49.006;12.076;2023-08-30T03:48:52;2.20;;;2.10;;
7539;SDS011;3811;49.006;12.076;2023-08-30T03:51:19;1.70;;;1.60;;
7539;SDS011;3811;49.006;12.076;2023-08-30T03:53:47;2.50;;;2.30;;
7539;SDS011;3811;49.006;12.076;2023-08-30T03:56:15;2.23;;;2.07;;
7539;SDS011;3811;49.006;12.076;2023-08-30T03:58:44;2.70;;;2.43;;
7539;SDS011;3811;49.006;12.076;2023-08-30T04:01:12;2.30;;;2.10;;
7539;SDS011;3811;49.006;12.076;2023-08-30T04:03:40;2.13;;;2.03;;
7539;SDS011;3811;49.006;12.076;2023-08-30T04:06:07;2.30;;;2.20;;
7539;SDS011;3811;49.006;12.076;2023-08-30T04:08:34;2.10;;;2.00;;
7539;SDS011;3811;49.006;12.076;2023-08-30T04:11:01;1.83;;;1.73;;
7539;SDS011;3811;49.006;12.076;2023-08-30T04:13:29;1.63;;;1.53;;
7539;SDS011;3811;49.006;12.076;2023-08-30T04:15:56;2.97;;;1.73;;
7539;SDS011;3811;49.006;12.076;2023-08-30T04:18:25;2.40;;;2.13;;
7539;SDS011;3811;49.006;12.076;2023-08-30T04:20:52;2.23;;;2.03;;
7539;SDS011;3811;49.006;12.076;2023-08-30T04:23:19;1.60;;;1.50;;
7539;SDS011;3811;49.006;12.076;2023-08-30T04:25:46;1.90;;;1.80;;
7539;SDS011;3811;49.006;12.076;2023-08-30T04:28:13;2.13;;;2.03;;
7539;SDS011;3811;49.006;12.076;2023-08-30T04:30:40;1.80;;;1.70;;
7539;SDS011;3811;49.006;12.076;2023-08-30T04:33:07;1.67;;;1.57;;
7539;SDS011;3811;49.006;12.076;2023-08-30T04:35:36;2.10;;;2.00;;
7539;SDS011;3811;49.006;12.076;2023-08-30T04:38:03;1.70;;;1.60;;
7539;SDS011;3811;49.006;12.076;2023-08-30T04:40:30;2.00;;;1.90;;
7539;SDS011;3811;49.006;12.076;2023-08-30T04:42:58;1.80;;;1.70;;
7539;SDS011;3811;49.006;12.076;2023-08-30T04:45:25;2.53;;;2.30;;
7539;SDS011;3811;49.006;12.076;2023-08-30T04:47:52;2.97;;;2.70;;
7539;SDS011;3811;49.006;12.076;2023-08-30T04:50:20;2.57;;;2.47;;
7539;SDS011;3811;49.006;12.076;2023-08-30T04:52:48;2.30;;;2.10;;
7539;SDS011;3811;49.006;12.076;2023-08-30T04:55:17;1.93;;;1.83;;
7539;SDS011;3811;49.006;12.076;2023-08-30T04:57:44;2.07;;;1.97;;
7539;SDS011;3811;49.006;12.076;2023-08-30T05:00:14;2.13;;;2.03;;
7539;SDS011;3811;49.006;12.076;2023-08-30T05:02:42;2.03;;;1.77;;
7539;SDS011;3811;49.006;12.076;2023-08-30T05:05:11;2.20;;;2.00;;
7539;SDS011;3811;49.006;12.076;2023-08-30T05:07:42;1.53;;;1.50;;
7539;SDS011;3811;49.006;12.076;2023-08-30T05:10:10;1.97;;;1.87;;
7539;SDS011;3811;49.006;12.076;2023-08-30T05:12:38;1.97;;;1.87;;
7539;SDS011;3811;49.006;12.076;2023-08-30T05:15:06;1.60;;;1.50;;
7539;SDS011;3811;49.006;12.076;2023-08-30T05:17:34;2.07;;;1.97;;
7539;SDS011;3811;49.006;12.076;2023-08-30T05:20:01;1.77;;;1.67;;
7539;SDS011;3811;49.006;12.076;2023-08-30T05:22:29;1.80;;;1.70;;
7539;SDS011;3811;49.006;12.076;2023-08-30T05:24:56;1.23;;;1.23;;
7539;SDS011;3811;49.006;12.076;2023-08-30T05:27:25;2.27;;;2.07;;
7539;SDS011;3811;49.006;12.076;2023-08-30T05:29:52;2.13;;;1.97;;
7539;SDS011;3811;49.006;12.076;2023-08-30T05:32:22;1.77;;;1.67;;
7539;SDS011;3811;49.006;12.076;2023-08-30T05:35:18;1.73;;;1.63;;
7539;SDS011;3811;49.006;12.076;2023-08-30T05:38:04;2.20;;;1.90;;
7539;SDS011;3811;49.006;12.076;2023-08-30T05:40:41;2.10;;;2.00;;
7539;SDS011;3811;49.006;12.076;2023-08-30T05:43:11;2.63;;;2.00;;
7539;SDS011;3811;49.006;12.076;2023-08-30T05:45:38;1.90;;;1.80;;
7539;SDS011;3811;49.006;12.076;2023-08-30T05:48:07;1.50;;;1.43;;
7539;SDS011;3811;49.006;12.076;2023-08-30T05:50:34;2.30;;;2.03;;
7539;SDS011;3811;49.006;12.076;2023-08-30T05:53:02;1.97;;;1.80;;
7539;SDS011;3811;49.006;12.076;2023-08-30T05:55:30;2.50;;;2.30;;
7539;SDS011;3811;49.006;12.076;2023-08-30T05:57:57;1.70;;;1.60;;
7539;SDS011;3811;49.006;12.076;2023-08-30T06:00:25;1.87;;;1.77;;
7539;SDS011;3811;49.006;12.076;2023-08-30T06:02:52;2.03;;;1.70;;
7539;SDS011;3811;49.006;12.076;2023-08-30T06:05:19;1.60;;;1.50;;
7539;SDS011;3811;49.006;12.076;2023-08-30T06:07:47;6.60;;;2.10;;
7539;SDS011;3811;49.006;12.076;2023-08-30T06:10:14;2.27;;;2.00;;
7539;SDS011;3811;49.006;12.076;2023-08-30T06:12:41;2.30;;;2.10;;
7539;SDS011;3811;49.006;12.076;2023-08-30T06:15:08;2.13;;;2.03;;
7539;SDS011;3811;49.006;12.076;2023-08-30T06:17:36;2.33;;;1.63;;
7539;SDS011;3811;49.006;12.076;2023-08-30T06:20:04;2.27;;;2.17;;
7539;SDS011;3811;49.006;12.076;2023-08-30T06:22:34;2.03;;;1.60;;
7539;SDS011;3811;49.006;12.076;2023-08-30T06:25:01;1.80;;;1.63;;
7539;SDS011;3811;49.006;12.076;2023-08-30T06:27:29;2.00;;;1.67;;
7539;SDS011;3811;49.006;12.076;2023-08-30T06:29:56;1.97;;;1.87;;
7539;SDS011;3811;49.006;12.076;2023-08-30T06:32:23;1.70;;;1.60;;
7539;SDS011;3811;49.006;12.076;2023-08-30T06:34:52;1.73;;;1.63;;
7539;SDS011;3811;49.006;12.076;2023-08-30T06:37:19;1.20;;;1.10;;
7539;SDS011;3811;49.006;12.076;2023-08-30T06:39:47;1.77;;;1.67;;
7539;SDS011;3811;49.006;12.076;2023-08-30T06:42:13;3.00;;;1.70;;
7539;SDS011;3811;49.006;12.076;2023-08-30T06:44:41;1.83;;;1.73;;
7539;SDS011;3811;49.006;12.076;2023-08-30T06:47:08;1.90;;;1.80;;
7539;SDS011;3811;49.006;12.076;2023-08-30T06:49:35;1.53;;;1.47;;
7539;SDS011;3811;49.006;12.076;2023-08-30T06:52:04;2.67;;;2.47;;
7539;SDS011;3811;49.006;12.076;2023-08-30T06:54:33;2.10;;;1.93;;
7539;SDS011;3811;49.006;12.076;2023-08-30T06:57:00;1.80;;;1.70;;
7539;SDS011;3811;49.006;12.076;2023-08-30T06:59:28;1.90;;;1.80;;
7539;SDS011;3811;49.006;12.076;2023-08-30T07:01:55;1.77;;;1.67;;
7539;SDS011;3811;49.006;12.076;2023-08-30T07:04:22;2.43;;;1.13;;
7539;SDS011;3811;49.006;12.076;2023-08-30T07:06:49;1.97;;;1.83;;
7539;SDS011;3811;49.006;12.076;2023-08-30T07:09:18;2.03;;;1.77;;
7539;SDS011;3811;49.006;12.076;2023-08-30T07:11:45;1.60;;;1.50;;
7539;SDS011;3811;49.006;12.076;2023-08-30T07:14:12;1.80;;;1.70;;
7539;SDS011;3811;49.006;12.076;2023-08-30T07:16:40;2.23;;;2.13;;
7539;SDS011;3811;49.006;12.076;2023-08-30T07:19:07;1.40;;;1.40;;
7539;SDS011;3811;49.006;12.076;2023-08-30T07:21:35;1.70;;;1.60;;
7539;SDS011;3811;49.006;12.076;2023-08-30T07:24:04;2.17;;;1.83;;
7539;SDS011;3811;49.006;12.076;2023-08-30T07:26:33;1.17;;;1.17;;
7539;SDS011;3811;49.006;12.076;2023-08-30T07:29:00;2.80;;;1.63;;
7539;SDS011;3811;49.006;12.076;2023-08-30T07:31:30;1.63;;;1.53;;
7539;SDS011;3811;49.006;12.076;2023-08-30T07:33:59;3.40;;;2.03;;
7539;SDS011;3811;49.006;12.076;2023-08-30T07:36:26;1.67;;;1.57;;
7539;SDS011;3811;49.006;12.076;2023-08-30T07:38:54;1.47;;;1.37;;
7539;SDS011;3811;49.006;12.076;2023-08-30T07:41:21;1.93;;;1.77;;
7539;SDS011;3811;49.006;12.076;2023-08-30T07:43:50;2.03;;;1.90;;
7539;SDS011;3811;49.006;12.076;2023-08-30T07:46:16;2.33;;;2.10;;
7539;SDS011;3811;49.006;12.076;2023-08-30T07:48:44;1.90;;;1.80;;
7539;SDS011;3811;49.006;12.076;2023-08-30T07:51:11;1.43;;;1.27;;
7539;SDS011;3811;49.006;12.076;2023-08-30T07:53:38;2.30;;;1.90;;
7539;SDS011;3811;49.006;12.076;2023-08-30T07:56:05;1.60;;;1.50;;
7539;SDS011;3811;49.006;12.076;2023-08-30T07:58:32;1.67;;;1.27;;
7539;SDS011;3811;49.006;12.076;2023-08-30T08:01:01;1.77;;;1.67;;
7539;SDS011;3811;49.006;12.076;2023-08-30T08:03:28;1.70;;;1.60;;
7539;SDS011;3811;49.006;12.076;2023-08-30T08:05:57;1.60;;;1.50;;
7539;SDS011;3811;49.006;12.076;2023-08-30T08:08:25;1.43;;;1.33;;
7539;SDS011;3811;49.006;12.076;2023-08-30T08:10:52;2.23;;;1.77;;
7539;SDS011;3811;49.006;12.076;2023-08-30T08:13:19;1.33;;;1.23;;
7539;SDS011;3811;49.006;12.076;2023-08-30T08:15:46;1.03;;;1.03;;
7539;SDS011;3811;49.006;12.076;2023-08-30T08:18:15;1.40;;;1.30;;
7539;SDS011;3811;49.006;12.076;2023-08-30T08:20:42;1.30;;;1.20;;
7539;SDS011;3811;49.006;12.076;2023-08-30T08:23:09;1.17;;;1.17;;
7539;SDS011;3811;49.006;12.076;2023-08-30T08:25:36;1.43;;;1.37;;
7539;SDS011;3811;49.006;12.076;2023-08-30T08:28:04;0.97;;;0.90;;
7539;SDS011;3811;49.006;12.076;2023-08-30T08:30:31;1.30;;;1.20;;
7539;SDS011;3811;49.006;12.076;2023-08-30T08:32:58;1.00;;;1.00;;
7539;SDS011;3811;49.006;12.076;2023-08-30T08:35:26;1.20;;;1.20;;
7539;SDS011;3811;49.006;12.076;2023-08-30T08:37:53;0.70;;;0.70;;
7539;SDS011;3811;49.006;12.076;2023-08-30T08:40:20;1.30;;;1.20;;
7539;SDS011;3811;49.006;12.076;2023-08-30T08:42:47;1.07;;;0.87;;
7539;SDS011;3811;49.006;12.076;2023-08-30T08:45:16;0.70;;;0.70;;
7539;SDS011;3811;49.006;12.076;2023-08-30T08:47:45;0.90;;;0.90;;
7539;SDS011;3811;49.006;12.076;2023-08-30T08:50:13;0.70;;;0.70;;
7539;SDS011;3811;49.006;12.076;2023-08-30T08:52:41;1.43;;;1.17;;
7539;SDS011;3811;49.006;12.076;2023-08-30T08:55:09;0.93;;;0.83;;
7539;SDS011;3811;49.006;12.076;2023-08-30T08:57:36;1.07;;;0.97;;
7539;SDS011;3811;49.006;12.076;2023-08-30T09:00:05;0.73;;;0.73;;
7539;SDS011;3811;49.006;12.076;2023-08-30T09:02:33;0.80;;;0.80;;
7539;SDS011;3811;49.006;12.076;2023-08-30T09:05:00;0.73;;;0.73;;
7539;SDS011;3811;49.006;12.076;2023-08-30T09:07:30;0.77;;;0.77;;
7539;SDS011;3811;49.006;12.076;2023-08-30T09:09:59;1.10;;;1.00;;
7539;SDS011;3811;49.006;12.076;2023-08-30T09:12:27;1.33;;;1.30;;
7539;SDS011;3811;49.006;12.076;2023-08-30T09:14:54;0.80;;;0.80;;
7539;SDS011;3811;49.006;12.076;2023-08-30T09:17:22;1.37;;;1.13;;
7539;SDS011;3811;49.006;12.076;2023-08-30T09:19:49;1.13;;;1.10;;
7539;SDS011;3811;49.006;12.076;2023-08-30T09:22:17;1.03;;;1.03;;
7539;SDS011;3811;49.006;12.076;2023-08-30T09:24:46;1.00;;;1.00;;
7539;SDS011;3811;49.006;12.076;2023-08-30T09:27:14;1.00;;;1.00;;
7539;SDS011;3811;49.006;12.076;2023-08-30T09:29:43;1.00;;;1.00;;
7539;SDS011;3811;49.006;12.076;2023-08-30T09:32:10;0.70;;;0.70;;
7539;SDS011;3811;49.006;12.076;2023-08-30T09:34:45;0.97;;;0.97;;
7539;SDS011;3811;49.006;12.076;2023-08-30T09:37:19;0.83;;;0.80;;
7539;SDS011;3811;49.006;12.076;2023-08-30T09:39:48;0.93;;;0.93;;
7539;SDS011;3811;49.006;12.076;2023-08-30T09:42:17;0.87;;;0.87;;
7539;SDS011;3811;49.006;12.076;2023-08-30T09:44:44;1.17;;;1.17;;
7539;SDS011;3811;49.006;12.076;2023-08-30T09:47:12;1.27;;;1.17;;
7539;SDS011;3811;49.006;12.076;2023-08-30T09:49:41;1.77;;;0.90;;
7539;SDS011;3811;49.006;12.076;2023-08-30T09:52:12;3.10;;;0.90;;
7539;SDS011;3811;49.006;12.076;2023-08-30T09:54:42;0.90;;;0.90;;
7539;SDS011;3811;49.006;12.076;2023-08-30T09:57:10;0.97;;;0.97;;
7539;SDS011;3811;49.006;12.076;2023-08-30T09:59:38;0.60;;;0.60;;
7539;SDS011;3811;49.006;12.076;2023-08-30T10:02:05;0.87;;;0.80;;
7539;SDS011;3811;49.006;12.076;2023-08-30T10:04:34;0.90;;;0.90;;
7539;SDS011;3811;49.006;12.076;2023-08-30T10:07:03;0.70;;;0.70;;
7539;SDS011;3811;49.006;12.076;2023-08-30T10:09:31;0.97;;;0.97;;
7539;SDS011;3811;49.006;12.076;2023-08-30T10:12:02;1.10;;;1.00;;
7539;SDS011;3811;49.006;12.076;2023-08-30T10:14:30;1.00;;;1.00;;
7539;SDS011;3811;49.006;12.076;2023-08-30T10:17:01;1.73;;;0.80;;
7539;SDS011;3811;49.006;12.076;2023-08-30T10:19:29;1.00;;;0.87;;
7539;SDS011;3811;49.006;12.076;2023-08-30T10:22:00;0.70;;;0.70;;
7539;SDS011;3811;49.006;12.076;2023-08-30T10:24:29;0.70;;;0.70;;
7539;SDS011;3811;49.006;12.076;2023-08-30T10:26:59;0.57;;;0.57;;
7539;SDS011;3811;49.006;12.076;2023-08-30T10:29:28;0.50;;;0.50;;
7539;SDS011;3811;49.006;12.076;2023-08-30T10:32:02;0.80;;;0.80;;
7539;SDS011;3811;49.006;12.076;2023-08-30T10:34:31;0.90;;;0.90;;
7539;SDS011;3811;49.006;12.076;2023-08-30T10:36:59;0.90;;;0.90;;
7539;SDS011;3811;49.006;12.076;2023-08-30T10:39:32;0.83;;;0.83;;
7539;SDS011;3811;49.006;12.076;2023-08-30T10:42:06;0.70;;;0.70;;
7539;SDS011;3811;49.006;12.076;2023-08-30T10:44:35;1.00;;;1.00;;
7539;SDS011;3811;49.006;12.076;2023-08-30T10:47:03;0.80;;;0.80;;
7539;SDS011;3811;49.006;12.076;2023-08-30T10:49:38;1.33;;;1.23;;
7539;SDS011;3811;49.006;12.076;2023-08-30T10:52:11;0.90;;;0.90;;
7539;SDS011;3811;49.006;12.076;2023-08-30T10:54:38;0.60;;;0.60;;
7539;SDS011;3811;49.006;12.076;2023-08-30T10:57:12;0.80;;;0.80;;
7539;SDS011;3811;49.006;12.076;2023-08-30T10:59:39;0.97;;;0.97;;
7539;SDS011;3811;49.006;12.076;2023-08-30T11:02:08;0.70;;;0.70;;
7539;SDS011;3811;49.006;12.076;2023-08-30T11:04:38;0.80;;;0.80;;
7539;SDS011;3811;49.006;12.076;2023-08-30T11:07:07;1.17;;;1.13;;
7539;SDS011;3811;49.006;12.076;2023-08-30T11:09:36;1.37;;;1.27;;
7539;SDS011;3811;49.006;12.076;2023-08-30T11:12:06;1.00;;;1.00;;
7539;SDS011;3811;49.006;12.076;2023-08-30T11:14:33;0.83;;;0.83;;
7539;SDS011;3811;49.006;12.076;2023-08-30T11:17:00;0.90;;;0.90;;
7539;SDS011;3811;49.006;12.076;2023-08-30T11:19:30;1.53;;;1.43;;
7539;SDS011;3811;49.006;12.076;2023-08-30T11:21:57;1.10;;;1.10;;
7539;SDS011;3811;49.006;12.076;2023-08-30T11:24:24;1.53;;;1.20;;
7539;SDS011;3811;49.006;12.076;2023-08-30T11:26:52;0.70;;;0.70;;
7539;SDS011;3811;49.006;12.076;2023-08-30T11:29:19;1.00;;;1.00;;
7539;SDS011;3811;49.006;12.076;2023-08-30T11:31:46;1.30;;;1.27;;
7539;SDS011;3811;49.006;12.076;2023-08-30T11:34:15;0.90;;;0.90;;
7539;SDS011;3811;49.006;12.076;2023-08-30T11:36:47;1.10;;;1.10;;
7539;SDS011;3811;49.006;12.076;2023-08-30T11:39:16;1.00;;;1.00;;
7539;SDS011;3811;49.006;12.076;2023-08-30T11:41:44;1.43;;;1.33;;
7539;SDS011;3811;49.006;12.076;2023-08-30T11:44:11;1.27;;;1.17;;
7539;SDS011;3811;49.006;12.076;2023-08-30T11:46:38;0.97;;;0.97;;
7539;SDS011;3811;49.006;12.076;2023-08-30T11:49:05;1.00;;;1.00;;
7539;SDS011;3811;49.006;12.076;2023-08-30T11:51:32;1.17;;;1.10;;
7539;SDS011;3811;49.006;12.076;2023-08-30T11:54:01;1.27;;;1.17;;
7539;SDS011;3811;49.006;12.076;2023-08-30T11:56:28;1.40;;;1.33;;
7539;SDS011;3811;49.006;12.076;2023-08-30T11:58:56;1.37;;;1.27;;
7539;SDS011;3811;49.006;12.076;2023-08-30T12:01:23;1.17;;;1.17;;
7539;SDS011;3811;49.006;12.076;2023-08-30T12:03:50;1.07;;;1.07;;
7539;SDS011;3811;49.006;12.076;2023-08-30T12:06:17;1.73;;;1.63;;
7539;SDS011;3811;49.006;12.076;2023-08-30T12:08:45;1.60;;;1.50;;
7539;SDS011;3811;49.006;12.076;2023-08-30T12:11:22;1.20;;;1.20;;
7539;SDS011;3811;49.006;12.076;2023-08-30T12:13:49;1.60;;;1.50;;
7539;SDS011;3811;49.006;12.076;2023-08-30T12:16:17;1.83;;;1.73;;
7539;SDS011;3811;49.006;12.076;2023-08-30T12:18:45;1.53;;;1.30;;
7539;SDS011;3811;49.006;12.076;2023-08-30T12:21:13;1.77;;;1.67;;
7539;SDS011;3811;49.006;12.076;2023-08-30T12:23:41;1.87;;;1.73;;
7539;SDS011;3811;49.006;12.076;2023-08-30T12:26:08;1.80;;;1.70;;
7539;SDS011;3811;49.006;12.076;2023-08-30T12:28:38;1.67;;;1.57;;
7539;SDS011;3811;49.006;12.076;2023-08-30T12:31:06;1.63;;;1.53;;
7539;SDS011;3811;49.006;12.076;2023-08-30T12:33:33;1.83;;;1.73;;
7539;SDS011;3811;49.006;12.076;2023-08-30T12:36:01;1.60;;;1.50;;
7539;SDS011;3811;49.006;12.076;2023-08-30T12:38:29;1.60;;;1.50;;
7539;SDS011;3811;49.006;12.076;2023-08-30T12:40:56;2.13;;;1.70;;
7539;SDS011;3811;49.006;12.076;2023-08-30T12:43:23;1.97;;;1.87;;
7539;SDS011;3811;49.006;12.076;2023-08-30T12:45:51;1.90;;;1.80;;
7539;SDS011;3811;49.006;12.076;2023-08-30T12:48:18;1.77;;;1.67;;
7539;SDS011;3811;49.006;12.076;2023-08-30T12:50:45;2.07;;;1.87;;
7539;SDS011;3811;49.006;12.076;2023-08-30T12:53:13;1.83;;;1.73;;
7539;SDS011;3811;49.006;12.076;2023-08-30T12:55:41;2.00;;;1.90;;
7539;SDS011;3811;49.006;12.076;2023-08-30T12:58:08;2.17;;;2.07;;
7539;SDS011;3811;49.006;12.076;2023-08-30T13:00:36;1.90;;;1.80;;
7539;SDS011;3811;49.006;12.076;2023-08-30T13:03:05;1.63;;;1.53;;
7539;SDS011;3811;49.006;12.076;2023-08-30T13:05:32;1.97;;;1.87;;
7539;SDS011;3811;49.006;12.076;2023-08-30T13:07:59;2.07;;;1.87;;
7539;SDS011;3811;49.006;12.076;2023-08-30T13:10:27;2.40;;;2.20;;
7539;SDS011;3811;49.006;12.076;2023-08-30T13:12:54;1.93;;;1.77;;
7539;SDS011;3811;49.006;12.076;2023-08-30T13:15:22;3.07;;;2.87;;
7539;SDS011;3811;49.006;12.076;2023-08-30T13:17:49;3.17;;;2.47;;
7539;SDS011;3811;49.006;12.076;2023-08-30T13:20:18;2.30;;;2.20;;
7539;SDS011;3811;49.006;12.076;2023-08-30T13:22:46;2.43;;;2.30;;
7539;SDS011;3811;49.006;12.076;2023-08-30T13:25:13;1.63;;;1.60;;
7539;SDS011;3811;49.006;12.076;2023-08-30T13:27:40;1.83;;;1.73;;
7539;SDS011;3811;49.006;12.076;2023-08-30T13:30:07;2.73;;;2.47;;
7539;SDS011;3811;49.006;12.076;2023-08-30T13:32:35;1.70;;;1.60;;
7539;SDS011;3811;49.006;12.076;2023-08-30T13:35:03;2.17;;;1.90;;
7539;SDS011;3811;49.006;12.076;2023-08-30T13:37:31;2.03;;;1.93;;
7539;SDS011;3811;49.006;12.076;2023-08-30T13:39:58;1.70;;;1.60;;
7539;SDS011;3811;49.006;12.076;2023-08-30T13:42:25;2.30;;;2.10;;
7539;SDS011;3811;49.006;12.076;2023-08-30T13:44:53;2.00;;;1.90;;
7539;SDS011;3811;49.006;12.076;2023-08-30T13:47:20;2.77;;;2.47;;
7539;SDS011;3811;49.006;12.076;2023-08-30T13:49:47;1.63;;;1.50;;
7539;SDS011;3811;49.006;12.076;2023-08-30T13:52:14;2.47;;;2.17;;
7539;SDS011;3811;49.006;12.076;2023-08-30T13:54:43;1.90;;;1.80;;
7539;SDS011;3811;49.006;12.076;2023-08-30T13:57:10;2.07;;;1.90;;
7539;SDS011;3811;49.006;12.076;2023-08-30T13:59:37;1.80;;;1.70;;
7539;SDS011;3811;49.006;12.076;2023-08-30T14:02:04;3.63;;;2.50;;
7539;SDS011;3811;49.006;12.076;2023-08-30T14:04:32;1.73;;;1.63;;
7539;SDS011;3811;49.006;12.076;2023-08-30T14:07:01;2.20;;;1.93;;
7539;SDS011;3811;49.006;12.076;2023-08-30T14:09:28;2.67;;;1.77;;
7539;SDS011;3811;49.006;12.076;2023-08-30T14:11:57;1.80;;;1.70;;
7539;SDS011;3811;49.006;12.076;2023-08-30T14:14:23;2.03;;;1.73;;
7539;SDS011;3811;49.006;12.076;2023-08-30T14:16:51;2.10;;;2.00;;
7539;SDS011;3811;49.006;12.076;2023-08-30T14:19:17;1.83;;;1.60;;
7539;SDS011;3811;49.006;12.076;2023-08-30T14:21:44;2.40;;;2.30;;
7539;SDS011;3811;49.006;12.076;2023-08-30T14:24:11;1.37;;;1.27;;
7539;SDS011;3811;49.006;12.076;2023-08-30T14:26:39;3.17;;;1.90;;
7539;SDS011;3811;49.006;12.076;2023-08-30T14:29:07;2.97;;;1.60;;
7539;SDS011;3811;49.006;12.076;2023-08-30T14:31:33;1.13;;;1.03;;
7539;SDS011;3811;49.006;12.076;2023-08-30T14:34:01;1.10;;;1.10;;
7539;SDS011;3811;49.006;12.076;2023-08-30T14:36:28;1.00;;;1.00;;
7539;SDS011;3811;49.006;12.076;2023-08-30T14:38:55;1.07;;;1.07;;
7539;SDS011;3811;49.006;12.076;2023-08-30T14:41:23;1.20;;;1.20;;
7539;SDS011;3811;49.006;12.076;2023-08-30T14:43:50;1.17;;;1.17;;
7539;SDS011;3811;49.006;12.076;2023-08-30T14:46:19;1.00;;;1.00;;
7539;SDS011;3811;49.006;12.076;2023-08-30T14:48:46;0.63;;;0.63;;
7539;SDS011;3811;49.006;12.076;2023-08-30T14:51:13;1.00;;;1.00;;
7539;SDS011;3811;49.006;12.076;2023-08-30T14:53:40;0.93;;;0.90;;
7539;SDS011;3811;49.006;12.076;2023-08-30T14:56:07;0.80;;;0.80;;
7539;SDS011;3811;49.006;12.076;2023-08-30T14:58:36;1.87;;;1.07;;
7539;SDS011;3811;49.006;12.076;2023-08-30T15:01:03;1.33;;;1.23;;
7539;SDS011;3811;49.006;12.076;2023-08-30T15:03:32;0.80;;;0.80;;
7539;SDS011;3811;49.006;12.076;2023-08-30T15:06:00;1.10;;;1.10;;